Time;durP1;ratioP1;P1;durP2;ratioP2;P2;SDS_P1;SDS_P2;PMS_P1;PMS_P2;Temp;Humidity;BMP_temperature;BMP_pressure;BME280_temperature;BME280_humidity;BME280_pressure;Samples;Min_cycle;Max_cycle;Signal;HPM_P1;HPM_P2
2023/10/05 00:03:46;;;;;;;;;5.33;5.33;;;;;16.46;57.67;101936.72;5078699;27;45554;-83
2023/10/05 00:06:16;;;;;;;;;2.00;2.00;;;;;16.56;58.13;101957.69;5078504;27;45376;-81
2023/10/05 00:08:49;;;;;;;;;3.67;3.00;;;;;16.64;57.68;101971.50;5079074;27;45395;-83
2023/10/05 00:11:29;;;;;;;;;4.33;3.00;;;;;16.60;57.77;101953.84;5078732;27;45188;-83
2023/10/05 00:13:59;;;;;;;;;4.33;4.00;;;;;16.59;57.66;101947.63;5078370;27;45358;-83
2023/10/05 00:16:36;;;;;;;;;3.33;3.33;;;;;16.53;57.81;101942.59;5078009;28;46190;-83
2023/10/05 00:19:11;;;;;;;;;4.33;2.67;;;;;16.42;57.89;101913.72;5076492;28;45371;-83
2023/10/05 00:21:39;;;;;;;;;3.33;3.33;;;;;16.53;57.94;101940.75;5078352;27;45503;-83
2023/10/05 00:24:06;;;;;;;;;4.67;4.00;;;;;16.54;57.97;101952.41;5078753;27;45370;-83
2023/10/05 00:26:36;;;;;;;;;4.67;4.67;;;;;16.56;57.94;101955.84;5077694;27;45977;-82
2023/10/05 00:31:32;;;;;;;;;5.33;3.00;;;;;16.49;57.84;101943.75;5062685;27;45469;-83
2023/10/05 00:33:58;;;;;;;;;9.00;4.33;;;;;16.42;58.06;101937.03;5058674;28;45307;-81
2023/10/05 00:36:33;;;;;;;;;4.00;4.00;;;;;16.55;58.08;101955.97;5063803;28;46027;-82
2023/10/05 00:39:01;;;;;;;;;4.00;4.00;;;;;16.53;58.10;101947.97;5063609;28;45218;-79
2023/10/05 00:41:28;;;;;;;;;6.67;3.67;;;;;16.58;58.34;101961.13;5059384;28;45442;-82
2023/10/05 00:43:53;;;;;;;;;3.67;3.67;;;;;16.31;58.26;101916.16;5059004;28;45515;-80
2023/10/05 00:46:20;;;;;;;;;4.67;3.00;;;;;16.32;58.31;101923.25;5057634;28;45533;-81
2023/10/05 00:49:03;;;;;;;;;3.67;3.67;;;;;16.52;58.45;101947.09;5057792;28;45339;-80
2023/10/05 00:51:31;;;;;;;;;3.00;3.00;;;;;16.42;58.55;101924.47;5057469;28;45410;-80
2023/10/05 00:54:02;;;;;;;;;5.00;5.00;;;;;16.48;58.57;101932.13;5057562;28;45219;-81
2023/10/05 00:56:33;;;;;;;;;4.67;4.67;;;;;16.55;58.39;101934.47;5055431;28;47250;-82
2023/10/05 00:59:05;;;;;;;;;7.67;5.00;;;;;16.43;58.69;101923.50;5055964;28;45256;-81
2023/10/05 01:01:34;;;;;;;;;4.00;4.00;;;;;16.50;58.48;101935.59;5057005;28;45381;-81
2023/10/05 01:06:54;;;;;;;;;4.67;4.67;;;;;16.52;59.04;101957.84;5056877;28;45489;-82
2023/10/05 01:14:52;;;;;;;;;5.33;5.33;;;;;16.39;59.16;101961.34;5056978;28;45365;-83
2023/10/05 01:17:20;;;;;;;;;5.00;4.67;;;;;16.36;59.30;101951.66;5056812;28;46291;-82
2023/10/05 01:19:53;;;;;;;;;3.67;3.67;;;;;16.31;58.98;101936.78;5056871;28;45232;-84
2023/10/05 01:22:21;;;;;;;;;5.33;3.00;;;;;16.38;59.18;101939.00;5056814;28;45437;-83
2023/10/05 01:24:48;;;;;;;;;5.33;4.00;;;;;16.47;59.16;101954.56;5056777;28;45266;-84
2023/10/05 01:27:14;;;;;;;;;6.00;3.33;;;;;16.30;58.63;101935.91;5056487;28;45291;-82
2023/10/05 01:29:40;;;;;;;;;3.33;3.33;;;;;16.38;58.90;101955.09;5057726;28;45342;-83
2023/10/05 01:32:07;;;;;;;;;3.00;3.00;;;;;16.26;58.99;101939.72;5077219;27;45346;-82
2023/10/05 01:34:32;;;;;;;;;3.67;3.67;;;;;16.19;58.90;101927.63;5075751;28;45406;-83
2023/10/05 01:36:58;;;;;;;;;3.00;3.00;;;;;16.23;58.85;101926.47;5076680;27;45992;-84
2023/10/05 01:39:24;;;;;;;;;5.33;4.00;;;;;16.27;58.75;101917.28;5076860;27;45363;-84
2023/10/05 01:41:50;;;;;;;;;2.00;2.00;;;;;16.24;58.72;101912.09;5076306;27;45416;-85
2023/10/05 01:44:16;;;;;;;;;3.67;3.67;;;;;16.35;58.73;101917.72;5077206;27;45568;-82
2023/10/05 01:46:42;;;;;;;;;2.33;2.33;;;;;16.34;58.58;101921.34;5075778;28;45959;-81
2023/10/05 01:49:08;;;;;;;;;4.00;3.00;;;;;16.25;58.63;101902.22;5076247;27;45285;-84
2023/10/05 01:51:33;;;;;;;;;4.00;4.00;;;;;16.30;58.67;101909.06;5076545;27;46365;-83
2023/10/05 01:54:05;;;;;;;;;3.00;3.00;;;;;16.43;58.51;101928.00;5076890;27;45257;-83
2023/10/05 01:56:32;;;;;;;;;5.67;3.00;;;;;16.36;58.77;101926.63;5075944;28;45384;-83
2023/10/05 01:59:00;;;;;;;;;5.67;4.00;;;;;16.18;58.67;101915.16;5075969;28;45264;-84
2023/10/05 02:01:28;;;;;;;;;4.33;3.33;;;;;16.28;58.69;101943.19;5075880;27;45405;-84
2023/10/05 02:03:56;;;;;;;;;4.00;3.00;;;;;16.20;58.83;101927.53;5076696;27;45472;-83
2023/10/05 02:06:21;;;;;;;;;5.00;3.00;;;;;16.19;58.56;101922.25;5067785;27;45704;-83
2023/10/05 02:08:47;;;;;;;;;3.33;3.33;;;;;16.22;58.68;101930.13;5056144;28;45323;-82
2023/10/05 02:11:23;;;;;;;;;3.00;3.00;;;;;16.26;58.74;101938.84;5055539;28;56039;-83
2023/10/05 02:13:49;;;;;;;;;3.00;3.00;;;;;16.17;58.20;101911.63;5056892;28;45237;-83
2023/10/05 02:16:16;;;;;;;;;3.67;3.67;;;;;16.32;58.19;101920.59;5055460;28;46213;-83
2023/10/05 02:18:42;;;;;;;;;3.00;2.67;;;;;16.27;58.23;101903.84;5065457;28;45401;-84
2023/10/05 02:21:17;;;;;;;;;2.00;2.00;;;;;16.31;58.47;101905.44;5074789;28;68286;-84
2023/10/05 02:23:44;;;;;;;;;7.00;6.00;;;;;16.27;58.33;101914.59;5076205;27;45449;-84
2023/10/05 02:26:23;;;;;;;;;3.00;3.00;;;;;16.28;58.32;101918.19;5075655;27;46078;-83
2023/10/05 02:28:50;;;;;;;;;4.00;2.67;;;;;16.13;58.85;101906.50;5072504;28;45350;-84
2023/10/05 02:31:15;;;;;;;;;6.00;3.00;;;;;16.20;58.87;101926.66;5075615;27;45241;-84
2023/10/05 02:33:43;;;;;;;;;4.00;4.00;;;;;16.16;59.22;101922.44;5075865;27;45870;-84
2023/10/05 02:36:13;;;;;;;;;3.00;3.00;;;;;16.11;59.39;101908.41;5075460;27;46326;-82
2023/10/05 02:38:47;;;;;;;;;3.00;3.00;;;;;16.13;59.27;101911.84;5075514;27;45379;-84
2023/10/05 02:41:13;;;;;;;;;2.33;2.33;;;;;16.06;59.44;101913.19;5075537;27;45380;-83
2023/10/05 02:43:39;;;;;;;;;3.00;3.00;;;;;15.96;59.94;101901.25;5076200;28;45462;-82
2023/10/05 02:46:10;;;;;;;;;4.00;3.00;;;;;16.03;60.00;101916.06;5075258;28;46599;-83
2023/10/05 02:48:43;;;;;;;;;3.00;2.67;;;;;16.03;60.66;101916.91;5075575;27;45417;-82
2023/10/05 02:51:11;;;;;;;;;4.67;4.67;;;;;15.97;60.87;101921.75;5076186;27;45432;-82
2023/10/05 02:53:47;;;;;;;;;4.00;4.00;;;;;15.80;61.01;101898.59;5076716;27;45332;-84
2023/10/05 02:56:22;;;;;;;;;5.00;4.00;;;;;15.90;61.38;101926.63;5075186;27;45325;-82
2023/10/05 02:58:50;;;;;;;;;3.00;3.00;;;;;15.80;61.19;101912.88;5060600;28;45425;-81
2023/10/05 03:01:16;;;;;;;;;5.33;3.33;;;;;15.84;62.12;101922.47;5064150;28;45466;-84
2023/10/05 03:03:43;;;;;;;;;6.33;4.67;;;;;15.86;61.68;101909.81;5076158;27;45337;-85
2023/10/05 03:06:10;;;;;;;;;5.67;5.67;;;;;15.81;62.18;101911.91;5075432;27;45567;-85
2023/10/05 03:08:36;;;;;;;;;4.67;4.00;;;;;15.83;62.01;101915.38;5074890;28;45520;-84
2023/10/05 03:11:02;;;;;;;;;6.00;3.00;;;;;15.86;61.96;101908.97;5075341;28;45409;-84
2023/10/05 03:13:28;;;;;;;;;4.67;4.00;;;;;15.87;61.69;101922.28;5075873;27;45654;-85
2023/10/05 03:15:55;;;;;;;;;7.67;5.33;;;;;15.89;61.82;101908.81;5073663;28;57506;-81
2023/10/05 03:18:20;;;;;;;;;6.00;4.67;;;;;15.85;62.06;101901.88;5075333;27;45402;-84
2023/10/05 03:20:46;;;;;;;;;3.00;3.00;;;;;15.79;61.59;101878.94;5075656;27;45577;-84
2023/10/05 03:23:14;;;;;;;;;4.00;4.00;;;;;15.91;61.99;101901.53;5072385;27;45532;-84
2023/10/05 03:25:41;;;;;;;;;8.00;5.00;;;;;15.76;61.73;101875.59;5058575;28;45480;-84
2023/10/05 03:28:06;;;;;;;;;26.67;22.00;;;;;15.89;61.68;101896.25;5058777;28;45338;-81
2023/10/05 03:30:35;;;;;;;;;26.33;24.00;;;;;15.92;61.46;101903.25;5058658;28;45318;-82
2023/10/05 03:33:01;;;;;;;;;11.67;10.33;;;;;15.81;61.47;101906.53;5058723;28;45307;-80
2023/10/05 03:35:27;;;;;;;;;8.00;6.00;;;;;15.76;62.15;101910.47;5065932;28;46230;-81
2023/10/05 03:37:53;;;;;;;;;9.33;7.67;;;;;15.71;61.87;101908.00;5077584;28;45472;-80
2023/10/05 03:40:35;;;;;;;;;3.67;3.33;;;;;15.69;61.75;101895.66;5078647;28;45445;-82
2023/10/05 03:43:00;;;;;;;;;4.00;4.00;;;;;15.35;61.68;101839.38;5079011;27;45408;-80
2023/10/05 03:45:26;;;;;;;;;3.67;3.67;;;;;15.74;62.19;101899.78;5078292;27;45462;-80
2023/10/05 03:47:53;;;;;;;;;6.00;5.00;;;;;15.69;62.28;101911.75;5079063;27;45309;-81
2023/10/05 03:50:19;;;;;;;;;3.67;3.67;;;;;15.43;62.11;101872.94;5078541;28;45487;-82
2023/10/05 03:52:45;;;;;;;;;6.00;4.00;;;;;15.45;62.45;101887.13;5078333;27;45388;-82
2023/10/05 03:55:11;;;;;;;;;3.00;3.00;;;;;15.59;62.95;101935.47;5077104;28;48325;-81
2023/10/05 03:57:37;;;;;;;;;5.00;5.00;;;;;15.19;63.07;101884.06;5078381;27;45613;-80
2023/10/05 04:02:46;;;;;;;;;9.00;4.67;;;;;15.41;63.83;101944.56;5078520;27;45336;-82
2023/10/05 04:05:11;;;;;;;;;4.00;4.00;;;;;15.32;64.17;101940.56;5077993;28;46206;-81
2023/10/05 04:07:39;;;;;;;;;7.00;7.00;;;;;15.34;64.61;101936.84;5085514;28;45360;-81
2023/10/05 04:10:07;;;;;;;;;7.33;6.33;;;;;15.34;65.01;101934.16;5078672;28;45318;-81
2023/10/05 04:12:32;;;;;;;;;7.00;6.00;;;;;15.32;64.73;101924.47;5066432;27;45467;-81
2023/10/05 04:15:00;;;;;;;;;6.00;3.00;;;;;15.33;65.16;101932.44;5057389;28;45659;-81
2023/10/05 04:17:26;;;;;;;;;5.67;5.00;;;;;15.23;65.05;101920.47;5062880;28;45558;-80
2023/10/05 04:19:52;;;;;;;;;8.00;6.33;;;;;15.30;65.34;101932.59;5077021;28;45438;-80
2023/10/05 04:22:17;;;;;;;;;6.33;6.33;;;;;15.07;65.18;101892.78;5078246;27;45339;-80
2023/10/05 04:24:44;;;;;;;;;9.00;6.00;;;;;15.23;65.58;101925.81;5076909;27;45334;-81
2023/10/05 04:27:10;;;;;;;;;6.00;6.00;;;;;15.08;65.68;101915.94;5077524;28;45520;-82
2023/10/05 04:29:37;;;;;;;;;7.67;4.67;;;;;15.12;65.81;101935.44;5077540;27;45930;-81
2023/10/05 04:32:03;;;;;;;;;6.00;4.67;;;;;15.04;65.99;101941.19;5063214;28;45453;-81
2023/10/05 04:34:30;;;;;;;;;4.67;4.67;;;;;15.12;65.57;101952.38;5056649;28;45405;-81
2023/10/05 04:36:56;;;;;;;;;4.00;4.00;;;;;15.11;66.33;101945.28;5077734;28;45278;-80
2023/10/05 04:39:29;;;;;;;;;6.00;4.67;;;;;14.90;66.14;101924.97;5077701;27;45410;-81
2023/10/05 04:41:56;;;;;;;;;3.67;3.67;;;;;14.95;66.03;101945.19;5078530;27;45322;-81
2023/10/05 04:44:25;;;;;;;;;5.00;3.33;;;;;14.87;65.83;101925.16;5077691;27;46157;-83
2023/10/05 04:46:51;;;;;;;;;6.33;5.00;;;;;14.91;66.40;101945.44;5076182;27;45619;-81
2023/10/05 04:49:18;;;;;;;;;10.00;5.67;;;;;14.68;65.91;101907.34;5057386;28;45551;-82
2023/10/05 04:51:43;;;;;;;;;4.67;4.67;;;;;14.81;65.87;101934.34;5057256;28;45323;-81
2023/10/05 04:54:10;;;;;;;;;2.00;2.00;;;;;14.55;65.46;101895.53;5056917;28;45468;-81
2023/10/05 04:56:43;;;;;;;;;4.33;4.33;;;;;14.69;65.46;101924.28;5056991;28;45327;-82
2023/10/05 05:07:07;;;;;;;;;5.00;5.00;;;;;14.46;66.73;101906.75;5056961;28;45366;-81
2023/10/05 05:09:34;;;;;;;;;6.67;6.67;;;;;14.51;66.93;101914.53;5057212;28;45332;-80
2023/10/05 05:12:03;;;;;;;;;4.00;4.00;;;;;14.49;67.28;101911.06;5057035;28;45262;-82
2023/10/05 05:14:33;;;;;;;;;5.00;4.00;;;;;14.44;66.86;101903.25;5057338;28;45409;-82
2023/10/05 05:17:02;;;;;;;;;6.00;5.00;;;;;14.56;67.04;101918.69;5057124;28;45184;-82
2023/10/05 05:19:30;;;;;;;;;6.67;5.33;;;;;14.58;67.10;101927.50;5055974;28;45388;-81
2023/10/05 05:22:02;;;;;;;;;5.00;5.00;;;;;14.57;66.92;101920.41;5056020;28;45350;-82
2023/10/05 05:24:28;;;;;;;;;6.00;6.00;;;;;14.60;66.80;101928.31;5066213;28;46537;-82
2023/10/05 05:27:01;;;;;;;;;9.00;6.67;;;;;14.61;66.40;101927.38;5077567;27;45432;-80
2023/10/05 05:29:29;;;;;;;;;5.33;5.33;;;;;14.59;66.65;101923.03;5077689;27;45343;-82
2023/10/05 05:31:55;;;;;;;;;5.67;4.00;;;;;14.51;67.50;101919.88;5077900;27;45537;-82
2023/10/05 05:34:25;;;;;;;;;7.33;5.33;;;;;14.46;66.58;101922.81;5076155;28;47055;-80
2023/10/05 05:36:52;;;;;;;;;5.00;4.00;;;;;14.40;67.62;101905.19;5077927;28;45513;-81
2023/10/05 05:39:19;;;;;;;;;6.00;4.33;;;;;14.32;67.68;101888.69;5073012;28;45484;-81
2023/10/05 05:41:44;;;;;;;;;3.00;3.00;;;;;14.45;67.34;101923.72;5079337;28;45533;-85
2023/10/05 05:44:10;;;;;;;;;7.67;6.33;;;;;14.31;67.42;101902.13;5071202;27;57766;-82
2023/10/05 05:46:35;;;;;;;;;7.33;3.33;;;;;14.42;67.65;101916.69;5080036;28;59465;-84
2023/10/05 05:49:00;;;;;;;;;5.33;5.33;;;;;14.46;67.73;101928.16;5081889;28;51938;-84
2023/10/05 05:51:27;;;;;;;;;5.00;4.67;;;;;14.45;68.04;101934.44;5085242;28;45603;-84
2023/10/05 05:53:53;;;;;;;;;9.33;5.67;;;;;14.41;67.67;101930.16;5081088;27;45257;-84
2023/10/05 05:56:25;;;;;;;;;4.00;4.00;;;;;14.29;68.05;101915.59;5078742;28;45165;-82
2023/10/05 05:58:50;;;;;;;;;12.00;5.33;;;;;14.38;67.85;101919.63;5059349;28;45434;-83
2023/10/05 06:01:16;;;;;;;;;7.67;6.33;;;;;14.45;67.90;101945.13;5076316;28;45438;-82
2023/10/05 06:03:44;;;;;;;;;7.33;6.33;;;;;14.43;67.43;101941.66;5082764;28;46094;-82
2023/10/05 06:06:09;;;;;;;;;9.67;8.00;;;;;14.32;68.36;101927.94;5062740;28;45225;-82
2023/10/05 06:08:35;;;;;;;;;7.00;7.00;;;;;14.46;67.93;101968.31;5059814;28;45286;-83
2023/10/05 06:11:06;;;;;;;;;10.00;7.33;;;;;14.46;68.79;101965.63;5079374;27;45582;-84
2023/10/05 06:13:36;;;;;;;;;7.00;7.00;;;;;14.41;68.49;101967.63;5077897;27;45669;-85
2023/10/05 06:16:06;;;;;;;;;12.67;7.00;;;;;14.50;68.18;101977.06;5076794;28;45484;-81
2023/10/05 06:18:32;;;;;;;;;7.33;7.33;;;;;14.40;69.16;101956.06;5077550;27;45327;-83
2023/10/05 06:20:57;;;;;;;;;7.33;7.33;;;;;14.36;69.07;101943.78;5077030;27;45157;-88
2023/10/05 06:23:23;;;;;;;;;10.00;7.00;;;;;14.30;68.51;101928.00;5076829;28;46991;-85
2023/10/05 06:25:50;;;;;;;;;9.33;9.33;;;;;14.67;68.90;101975.22;5076555;28;45415;-84
2023/10/05 06:28:15;;;;;;;;;9.33;8.00;;;;;14.54;68.87;101938.47;5064563;27;45385;-85
2023/10/05 06:30:41;;;;;;;;;8.00;7.67;;;;;14.47;67.97;101913.84;5056458;28;45509;-85
2023/10/05 06:33:07;;;;;;;;;9.00;6.00;;;;;14.86;68.55;101958.22;5055903;28;45826;-82
2023/10/05 06:35:33;;;;;;;;;8.00;7.00;;;;;14.81;68.48;101952.22;5070149;28;45576;-82
2023/10/05 06:37:58;;;;;;;;;6.67;4.00;;;;;14.86;67.89;101947.53;5072417;28;45398;-84
2023/10/05 06:40:25;;;;;;;;;11.00;7.00;;;;;14.86;68.00;101928.78;5076581;27;45532;-84
2023/10/05 06:42:51;;;;;;;;;8.33;7.33;;;;;14.94;68.07;101934.56;5076075;27;46432;-83
2023/10/05 06:45:19;;;;;;;;;8.33;7.00;;;;;14.97;67.17;101942.44;5075097;27;45328;-82
2023/10/05 06:47:44;;;;;;;;;9.33;8.33;;;;;14.82;67.02;101940.56;5076128;27;45318;-83
2023/10/05 06:50:10;;;;;;;;;21.00;18.00;;;;;14.96;67.83;101959.47;5075557;27;45593;-84
2023/10/05 06:52:39;;;;;;;;;16.33;13.33;;;;;14.80;67.51;101932.63;5075790;28;46109;-82
2023/10/05 06:55:08;;;;;;;;;13.33;12.33;;;;;15.17;67.49;101984.25;5075748;27;45434;-83
2023/10/05 06:57:35;;;;;;;;;11.00;9.00;;;;;15.18;67.11;101976.13;5078938;27;45275;-82
2023/10/05 07:00:16;;;;;;;;;12.33;9.33;;;;;15.26;67.19;101978.44;5078556;28;45208;-83
2023/10/05 07:02:43;;;;;;;;;11.33;11.33;;;;;15.25;67.61;101966.84;5077854;28;46748;-84
2023/10/05 07:05:09;;;;;;;;;16.00;8.67;;;;;15.29;67.07;101975.56;5079353;28;45291;-83
2023/10/05 07:07:35;;;;;;;;;8.00;8.00;;;;;15.45;66.88;101975.59;5079833;27;45325;-83
2023/10/05 07:10:05;;;;;;;;;14.67;9.33;;;;;15.49;66.21;101964.63;5079491;27;45402;-83
2023/10/05 07:12:31;;;;;;;;;9.33;6.33;;;;;15.69;65.98;101986.84;5078951;27;45330;-83
2023/10/05 07:14:57;;;;;;;;;8.00;8.00;;;;;15.66;65.49;101966.41;5077743;28;45935;-83
2023/10/05 07:17:22;;;;;;;;;7.33;6.33;;;;;15.84;65.06;101992.22;5078956;27;45272;-83
2023/10/05 07:19:49;;;;;;;;;6.33;6.33;;;;;15.99;64.79;102005.72;5079393;28;45644;-83
2023/10/05 07:22:16;;;;;;;;;7.67;6.00;;;;;15.99;64.51;101997.66;5077814;28;46214;-84
2023/10/05 07:24:42;;;;;;;;;8.00;8.00;;;;;15.92;64.61;101995.34;5078969;28;45194;-84
2023/10/05 07:27:07;;;;;;;;;9.67;8.00;;;;;16.07;64.51;102000.78;5079599;28;45531;-84
2023/10/05 07:29:33;;;;;;;;;10.00;7.00;;;;;16.29;63.97;101987.88;5081873;28;45263;-89
2023/10/05 07:32:01;;;;;;;;;7.67;6.00;;;;;16.23;62.84;101934.53;5083028;28;47832;-90
2023/10/05 07:34:27;;;;;;;;;6.67;6.67;;;;;16.29;62.58;101939.56;5081354;28;44829;-86
2023/10/05 07:36:52;;;;;;;;;10.67;9.00;;;;;16.58;62.03;101956.63;5082232;27;45433;-88
2023/10/05 07:39:23;;;;;;;;;10.67;8.33;;;;;16.88;61.14;101940.50;5091874;28;44789;-87
2023/10/05 07:41:49;;;;;;;;;8.33;7.00;;;;;17.12;59.91;101935.44;5102991;27;45239;-86
2023/10/05 07:44:15;;;;;;;;;7.33;7.00;;;;;17.51;58.63;101979.63;5097391;28;45499;-88
2023/10/05 07:46:40;;;;;;;;;8.00;6.67;;;;;17.56;58.31;101994.50;5086409;28;45219;-91
2023/10/05 07:49:06;;;;;;;;;15.00;8.00;;;;;17.67;58.70;102018.91;5083314;28;45447;-87
2023/10/05 07:51:31;;;;;;;;;8.33;6.67;;;;;17.64;58.64;102016.41;5083316;28;47214;-84
2023/10/05 07:53:58;;;;;;;;;7.33;6.33;;;;;17.25;58.52;101952.53;5086814;27;45209;-86
2023/10/05 07:56:24;;;;;;;;;11.33;8.00;;;;;17.40;58.25;101985.66;5083809;28;45856;-88
2023/10/05 07:58:50;;;;;;;;;8.33;7.00;;;;;17.53;58.56;101999.22;5081534;27;45238;-86
2023/10/05 08:01:17;;;;;;;;;7.00;6.00;;;;;17.52;58.51;102001.03;5081499;27;46127;-85
2023/10/05 08:03:43;;;;;;;;;6.00;5.33;;;;;17.37;58.03;101977.81;5089986;27;45372;-85
2023/10/05 08:06:12;;;;;;;;;6.00;6.00;;;;;17.31;58.40;101956.66;5089045;27;45421;-85
2023/10/05 08:08:40;;;;;;;;;8.67;7.33;;;;;17.58;57.64;102016.81;5086665;27;45367;-86
2023/10/05 08:11:06;;;;;;;;;11.67;5.00;;;;;17.51;57.41;102002.00;5079426;28;45302;-85
2023/10/05 08:13:31;;;;;;;;;9.00;7.00;;;;;17.51;57.34;101998.44;5078719;27;45341;-85
2023/10/05 08:15:57;;;;;;;;;8.67;6.00;;;;;17.19;57.03;101965.50;5078417;28;50610;-86
2023/10/05 08:18:22;;;;;;;;;12.67;9.33;;;;;17.16;57.30;101971.06;5078736;28;45483;-85
2023/10/05 08:20:47;;;;;;;;;10.67;7.67;;;;;17.53;57.75;102042.25;5078657;27;46297;-85
2023/10/05 08:23:13;;;;;;;;;18.33;12.00;;;;;17.47;58.04;102042.66;5080803;28;45371;-86
2023/10/05 08:25:38;;;;;;;;;20.67;12.00;;;;;17.03;58.01;101985.25;5094336;27;45467;-83
2023/10/05 08:28:04;;;;;;;;;54.33;35.00;;;;;17.38;58.07;102049.44;5078100;28;45619;-85
2023/10/05 08:30:33;;;;;;;;;46.00;28.67;;;;;17.43;57.83;102074.22;5077833;27;46254;-82
2023/10/05 08:33:03;;;;;;;;;50.67;29.67;;;;;17.18;58.52;102036.34;5076831;28;45255;-83
2023/10/05 08:35:40;;;;;;;;;22.33;12.67;;;;;17.51;58.63;102082.69;5078247;27;45331;-83
2023/10/05 08:38:09;;;;;;;;;19.33;13.67;;;;;17.58;58.55;102093.97;5078252;27;45329;-82
2023/10/05 08:43:11;;;;;;;;;10.00;8.67;;;;;17.86;57.96;102056.31;5078804;27;45381;-83
2023/10/05 08:45:46;;;;;;;;;9.33;9.33;;;;;17.72;57.48;102028.56;5079497;27;45448;-84
2023/10/05 08:48:18;;;;;;;;;13.33;11.33;;;;;17.90;57.87;102059.69;5078008;28;45280;-84
2023/10/05 08:50:46;;;;;;;;;10.00;10.00;;;;;17.96;57.40;102061.97;5081612;27;45471;-84
2023/10/05 08:53:13;;;;;;;;;19.67;13.67;;;;;17.91;57.67;102073.03;5081777;27;45235;-84
2023/10/05 08:55:42;;;;;;;;;7.67;7.67;;;;;17.79;57.32;102052.28;5079963;27;45506;-83
2023/10/05 08:58:09;;;;;;;;;13.67;11.33;;;;;17.93;56.69;102089.09;5079538;28;45230;-85
2023/10/05 09:00:40;;;;;;;;;12.00;9.00;;;;;17.67;57.27;102051.19;5078537;27;45638;-85
2023/10/05 09:03:28;;;;;;;;;7.67;7.67;;;;;17.57;57.18;102050.03;5078640;27;45416;-85
2023/10/05 09:06:15;;;;;;;;;11.00;9.33;;;;;17.68;57.30;102090.63;5079507;28;45337;-83
2023/10/05 09:11:33;;;;;;;;;5.33;5.33;;;;;17.57;56.50;102079.63;5077411;27;45490;-80
2023/10/05 09:14:12;;;;;;;;;9.33;5.33;;;;;17.54;56.15;102055.59;5077402;28;45268;-82
2023/10/05 09:16:41;;;;;;;;;5.67;4.33;;;;;17.75;55.46;102031.91;5077660;27;45563;-81
2023/10/05 09:19:08;;;;;;;;;5.33;5.33;;;;;18.10;55.53;102053.91;5078376;27;45376;-82
2023/10/05 09:21:58;;;;;;;;;6.67;6.00;;;;;18.42;54.98;102057.16;5077452;27;47174;-84
2023/10/05 09:24:25;;;;;;;;;8.67;3.67;;;;;18.53;54.49;102064.56;5085554;28;44816;-86
2023/10/05 09:26:58;;;;;;;;;7.33;7.33;;;;;18.67;54.06;102067.22;5077568;28;45569;-80
2023/10/05 09:29:28;;;;;;;;;6.00;3.67;;;;;18.79;53.64;102074.50;5077821;27;45600;-81
2023/10/05 09:31:54;;;;;;;;;10.00;6.00;;;;;19.06;53.33;102076.28;5077500;27;45347;-80
2023/10/05 09:34:41;;;;;;;;;8.33;7.00;;;;;19.24;52.80;102069.63;5078068;27;45222;-81
2023/10/05 09:37:08;;;;;;;;;5.00;5.00;;;;;19.38;52.00;102061.44;5080237;27;45190;-81
2023/10/05 09:39:43;;;;;;;;;12.00;11.00;;;;;19.53;51.56;102069.41;5077568;28;45243;-81
2023/10/05 09:42:16;;;;;;;;;10.67;8.67;;;;;19.74;51.43;102078.75;5077935;27;45430;-82
2023/10/05 09:44:50;;;;;;;;;7.00;6.00;;;;;19.83;50.51;102071.81;5078362;27;45304;-85
2023/10/05 09:47:19;;;;;;;;;5.33;5.00;;;;;19.91;50.14;102074.81;5077458;27;45230;-80
2023/10/05 09:49:46;;;;;;;;;127.00;67.50;;;;;19.74;49.31;102051.75;5077225;27;45504;-83
2023/10/05 09:52:13;;;;;;;;;19.00;14.33;;;;;19.88;49.54;102048.91;5077034;27;45982;-80
2023/10/05 09:54:40;;;;;;;;;15.67;12.67;;;;;20.14;47.91;102079.44;5077073;28;45181;-82
2023/10/05 09:57:10;;;;;;;;;17.00;9.00;;;;;20.24;48.28;102074.22;5077046;27;45216;-81
2023/10/05 09:59:41;;;;;;;;;7.00;5.67;;;;;20.40;47.75;102072.13;5077263;27;45533;-81
2023/10/05 10:02:16;;;;;;;;;5.67;4.67;;;;;20.45;47.10;102077.22;5077151;28;45335;-82
2023/10/05 10:04:42;;;;;;;;;6.00;4.67;;;;;20.25;47.20;102059.75;5077304;27;45339;-81
2023/10/05 10:07:24;;;;;;;;;8.33;7.33;;;;;20.35;47.10;102065.34;5077686;27;45343;-83
2023/10/05 10:09:54;;;;;;;;;4.33;3.00;;;;;20.19;46.31;102027.78;5077027;27;45377;-85
2023/10/05 10:12:31;;;;;;;;;3.00;3.00;;;;;20.23;46.58;102034.69;5076930;27;46421;-83
2023/10/05 10:14:58;;;;;;;;;7.33;6.00;;;;;20.47;46.51;102051.81;5076781;28;45386;-81
2023/10/05 10:17:27;;;;;;;;;4.00;4.00;;;;;20.59;46.54;102031.13;5077102;27;45333;-81
2023/10/05 10:20:15;;;;;;;;;6.67;4.33;;;;;20.64;45.98;102031.63;5077331;28;45515;-82
2023/10/05 10:23:00;;;;;;;;;7.00;3.33;;;;;20.61;45.13;102040.81;5075546;28;46438;-82
2023/10/05 10:25:45;;;;;;;;;4.33;4.00;;;;;20.71;44.69;102038.31;5078069;27;45314;-79
2023/10/05 10:28:17;;;;;;;;;9.00;6.00;;;;;20.71;45.89;102026.63;5078401;28;45529;-82
2023/10/05 10:30:47;;;;;;;;;6.67;5.00;;;;;20.59;44.87;102020.31;5078737;27;45362;-84
2023/10/05 10:33:35;;;;;;;;;9.67;6.00;;;;;20.38;44.85;102017.31;5079710;28;48031;-81
2023/10/05 10:36:03;;;;;;;;;3.00;3.00;;;;;20.27;44.46;102025.38;5083390;27;45239;-81
2023/10/05 10:38:29;;;;;;;;;7.00;5.67;;;;;20.16;44.74;102033.41;5086791;27;44723;-87
2023/10/05 10:41:16;;;;;;;;;6.00;6.00;;;;;20.10;44.43;102028.47;5091676;27;45537;-85
2023/10/05 10:43:49;;;;;;;;;7.00;5.33;;;;;19.95;45.16;102039.41;5089528;27;45357;-82
2023/10/05 10:46:28;;;;;;;;;6.00;4.67;;;;;19.84;45.93;102046.56;5086619;27;45372;-81
2023/10/05 10:48:58;;;;;;;;;5.00;5.00;;;;;19.83;45.28;102034.91;5084368;27;45330;-85
2023/10/05 10:51:31;;;;;;;;;15.00;6.00;;;;;20.03;45.81;102053.19;5082519;27;45521;-82
2023/10/05 10:53:59;;;;;;;;;8.67;7.00;;;;;19.95;45.87;102052.06;5081506;28;45441;-84
2023/10/05 10:56:30;;;;;;;;;5.00;5.00;;;;;19.74;45.93;102036.41;5081288;27;45401;-86
2023/10/05 10:59:10;;;;;;;;;6.67;6.33;;;;;19.80;46.48;102051.31;5082923;27;45658;-87
2023/10/05 11:01:43;;;;;;;;;5.00;5.00;;;;;19.79;46.40;102044.16;5082590;28;45444;-85
2023/10/05 11:04:25;;;;;;;;;7.33;6.33;;;;;19.94;46.37;102037.69;5084702;27;45595;-84
2023/10/05 11:07:07;;;;;;;;;14.67;8.67;;;;;20.65;45.31;102037.88;5091939;28;44696;-81
2023/10/05 11:09:52;;;;;;;;;6.67;4.67;;;;;21.29;43.96;102030.25;5090844;28;44781;-82
2023/10/05 11:12:21;;;;;;;;;7.00;6.00;;;;;21.81;42.44;102040.50;5082707;28;45283;-85
2023/10/05 11:14:47;;;;;;;;;5.67;5.67;;;;;22.20;42.07;102031.00;5082333;28;46136;-83
2023/10/05 11:17:23;;;;;;;;;5.00;5.00;;;;;22.60;41.54;102008.69;5079943;28;45225;-83
2023/10/05 11:19:49;;;;;;;;;4.33;4.33;;;;;23.24;40.73;102027.63;5087831;28;45341;-82
2023/10/05 11:22:23;;;;;;;;;7.00;5.33;;;;;23.60;39.10;102037.16;5090138;27;45557;-80
2023/10/05 11:25:14;;;;;;;;;5.00;5.00;;;;;23.82;38.67;102022.50;5090383;28;45437;-85
2023/10/05 11:27:44;;;;;;;;;7.00;5.33;;;;;24.10;38.25;102027.22;5093399;27;45238;-81
2023/10/05 11:30:18;;;;;;;;;4.25;3.75;;;;;24.11;38.32;102011.75;5088040;27;44836;-82
2023/10/05 11:32:46;;;;;;;;;6.50;4.50;;;;;24.63;37.77;102023.31;5092024;28;44816;-81
2023/10/05 11:35:15;;;;;;;;;7.00;7.00;;;;;24.83;37.53;102007.81;5092888;27;45250;-86
2023/10/05 11:37:44;;;;;;;;;4.75;4.75;;;;;25.17;35.66;102014.53;5088634;27;45258;-86
2023/10/05 11:40:19;;;;;;;;;7.25;7.25;;;;;24.95;35.66;101979.44;5079278;28;45390;-86
2023/10/05 11:42:48;;;;;;;;;5.50;3.75;;;;;25.01;35.71;101994.38;5078780;28;45313;-84
2023/10/05 11:45:16;;;;;;;;;8.50;5.75;;;;;25.15;35.52;102002.09;5080554;27;46239;-84
2023/10/05 11:47:52;;;;;;;;;5.00;4.25;;;;;25.11;35.18;101985.16;5079886;27;45410;-85
2023/10/05 11:50:28;;;;;;;;;7.00;7.00;;;;;25.23;36.13;101978.53;5080383;28;45392;-87
2023/10/05 11:52:54;;;;;;;;;5.00;5.00;;;;;25.86;34.82;101981.47;5080628;27;45357;-87
2023/10/05 11:55:20;;;;;;;;;5.25;5.25;;;;;26.80;33.39;101981.06;5078938;28;48591;-86
2023/10/05 11:57:46;;;;;;;;;7.00;5.75;;;;;27.28;31.59;101964.22;5080101;27;45329;-83
2023/10/05 12:00:18;;;;;;;;;5.25;5.25;;;;;27.16;31.97;101967.38;5079952;27;45493;-84
2023/10/05 12:02:46;;;;;;;;;4.25;3.50;;;;;27.67;31.44;101985.63;5080831;27;45441;-84